Briefing drone pour Decize

Rechercher une autre localisation

Conditions de vol :


Nous sommes le : Samedi 28 mai 2022
Il est 20:17 UTC (22:17 LT)

Lever de soleil : 03:32 UTC (05:32 LT)
Coucher de soleil : 19:54 UTC (21:54 LT)

Météo

L'essentiel des conditions de vol

VIGILANCE MÉTÉO FRANCE - Nièvre (58)
Pas de vigilances particulieres
METAR de LFQG
LFQG 281800Z AUTO 03010KT CAVOK 19/05 Q1017

Date d'émission: 28/05/2022
Heure d'émission: 18:00 UTC
Vent: 030° pour 10 KT (19 km/h)
Visibilité horizontale: > 10 km
Plafond : Plafond et visibilité OK (CAVOK)
Température: 19 °C
Point de rosée: 5 °C
Humidité: 40%
Pression (QNH): 1017 hPa
Prévision 24h pour Nevers (18 km)
Vent : 9° pour 4 KT (15 km/h)
Temperature Maxi: 18 °C
Temperature Min: 18 °C
Humidité : 33%
Condition : Partiellement nuageux



Warning: count(): Parameter must be an array or an object that implements Countable in /homepages/6/d509196549/htdocs/droneoxygene/briefing.php on line 743
WEBCAM POUR DECIZE

Réglementation

Voler en sécurité

CARTES AERONAUTIQUE 1/500.000
CARTES VAC (LFQG)
SUP AIP




Chargement des AIP...
NOTAM (DECIZE + Terrain à proximité / FIR )




Chargement des NOTAMS...
CONTACT PREFECTURE 58


Avertissement : Les données mises à disposition sont indicatives. Oxygène Drone ne pourra être tenu responsable de dégâts causés aux biens et aux personnes.